Time;durP1;ratioP1;P1;durP2;ratioP2;P2;SDS_P1;SDS_P2;PMS_P1;PMS_P2;Temp;Humidity;BMP_temperature;BMP_pressure;BME280_temperature;BME280_humidity;BME280_pressure;Samples;Min_cycle;Max_cycle;Signal;HPM_P1;HPM_P2
2022/11/12 00:02:13;;;;;;;9.15;7.07;;;;;;;18.91;45.33;103045.78;4993174;28;20038;-65
2022/11/12 00:04:39;;;;;;;9.13;6.20;;;;;;;18.93;45.60;103058.00;4993341;28;20475;-66
2022/11/12 00:07:04;;;;;;;9.70;6.75;;;;;;;18.88;45.48;103044.16;4993401;28;20334;-65
2022/11/12 00:09:29;;;;;;;9.40;6.53;;;;;;;18.90;45.43;103058.16;4993104;28;20096;-65
2022/11/12 00:11:54;;;;;;;8.57;6.63;;;;;;;18.89;45.36;103064.38;4992967;28;20263;-65
2022/11/12 00:14:20;;;;;;;8.77;6.50;;;;;;;18.87;45.44;103071.53;4993056;28;20264;-65
2022/11/12 00:16:45;;;;;;;9.65;6.75;;;;;;;18.81;45.21;103054.13;4992999;28;20736;-65
2022/11/12 00:19:10;;;;;;;9.13;6.93;;;;;;;18.79;45.52;103056.00;4992712;28;20038;-66
2022/11/12 00:21:35;;;;;;;11.03;6.73;;;;;;;18.79;45.25;103049.88;4992755;28;20781;-66
2022/11/12 00:24:01;;;;;;;9.27;6.73;;;;;;;18.78;45.29;103056.94;4993331;28;20707;-66
2022/11/12 00:26:26;;;;;;;9.93;7.00;;;;;;;18.78;45.34;103059.56;4992390;28;20267;-64
2022/11/12 00:28:51;;;;;;;9.33;6.73;;;;;;;18.74;45.14;103059.78;4992570;28;20515;-65
2022/11/12 00:31:17;;;;;;;9.80;7.00;;;;;;;18.71;45.13;103066.09;4992832;28;20334;-67
2022/11/12 00:33:42;;;;;;;8.63;6.93;;;;;;;18.71;45.26;103063.47;4992869;28;20267;-65
2022/11/12 00:36:09;;;;;;;10.18;7.07;;;;;;;18.68;45.15;103061.81;4992289;28;20592;-64
2022/11/12 00:38:34;;;;;;;9.23;7.28;;;;;;;18.71;45.27;103071.38;4992603;28;20030;-65
2022/11/12 00:41:00;;;;;;;9.23;7.07;;;;;;;18.68;45.11;103066.25;4993002;28;20442;-65
2022/11/12 00:43:26;;;;;;;10.20;7.10;;;;;;;18.64;45.21;103065.56;4992258;28;20049;-65
2022/11/12 00:45:51;;;;;;;10.98;7.40;;;;;;;18.62;45.17;103056.81;4992614;28;20042;-65
2022/11/12 00:48:16;;;;;;;10.63;7.87;;;;;;;18.61;45.09;103057.78;4992142;28;20087;-65
2022/11/12 00:50:41;;;;;;;11.03;7.30;;;;;;;18.63;45.18;103058.53;4992628;28;20278;-65
2022/11/12 00:53:07;;;;;;;9.37;7.43;;;;;;;18.60;45.07;103055.22;4991759;28;20418;-65
2022/11/12 00:55:32;;;;;;;9.47;6.90;;;;;;;18.58;44.89;103054.41;4992192;28;20299;-65
2022/11/12 00:57:58;;;;;;;9.43;6.95;;;;;;;18.60;45.17;103060.50;4992072;28;20271;-66
2022/11/12 01:00:24;;;;;;;8.75;7.13;;;;;;;18.56;45.08;103051.00;4991521;28;20038;-66
2022/11/12 01:02:49;;;;;;;11.45;7.25;;;;;;;18.55;44.91;103050.16;4992320;28;20037;-66
2022/11/12 01:05:14;;;;;;;10.13;7.25;;;;;;;18.57;44.79;103055.34;4992338;28;20034;-64
2022/11/12 01:07:40;;;;;;;9.80;7.47;;;;;;;18.56;44.86;103061.56;4992497;28;20038;-65
2022/11/12 01:10:06;;;;;;;10.27;7.35;;;;;;;18.51;44.86;103042.44;4992197;28;20034;-65
2022/11/12 01:12:32;;;;;;;10.38;8.02;;;;;;;18.49;44.82;103040.72;4992187;28;20495;-65
2022/11/12 01:14:58;;;;;;;9.20;6.93;;;;;;;18.53;44.81;103043.22;4998740;28;20458;-65
2022/11/12 01:17:23;;;;;;;9.82;6.85;;;;;;;18.49;44.71;103043.38;4992032;28;20041;-65
2022/11/12 01:19:49;;;;;;;12.23;7.50;;;;;;;18.49;44.57;103038.09;4991649;28;20046;-65
2022/11/12 01:22:14;;;;;;;10.27;7.40;;;;;;;18.49;44.87;103046.00;4991638;28;20038;-65
2022/11/12 01:24:39;;;;;;;10.33;6.90;;;;;;;18.46;45.00;103043.50;4992271;28;20064;-65
2022/11/12 01:27:05;;;;;;;11.77;7.50;;;;;;;18.48;44.96;103046.94;4991790;28;20272;-66
2022/11/12 01:29:30;;;;;;;9.60;7.40;;;;;;;18.46;44.51;103050.59;4992323;28;20109;-66
2022/11/12 01:31:55;;;;;;;10.02;7.75;;;;;;;18.45;44.55;103044.47;4991620;28;20029;-64
2022/11/12 01:34:21;;;;;;;10.68;7.80;;;;;;;18.41;44.81;103037.59;4991536;28;20058;-65
2022/11/12 01:36:46;;;;;;;9.07;6.75;;;;;;;18.42;44.68;103036.69;4991561;28;20125;-64
2022/11/12 01:39:12;;;;;;;11.88;7.15;;;;;;;18.41;44.67;103044.69;4991334;28;20052;-65
2022/11/12 01:41:40;;;;;;;10.00;7.47;;;;;;;18.43;44.88;103043.66;4991839;28;20034;-66
2022/11/12 01:44:11;;;;;;;9.30;7.15;;;;;;;18.42;44.58;103047.25;4991472;28;20088;-65
2022/11/12 01:46:46;;;;;;;10.20;7.25;;;;;;;18.37;44.34;103033.38;4991370;28;20022;-64
2022/11/12 01:49:17;;;;;;;8.70;7.10;;;;;;;18.42;44.43;103034.03;4990393;28;21266;-66
2022/11/12 01:51:47;;;;;;;11.18;7.45;;;;;;;18.36;44.49;103036.97;4991456;28;20029;-66
2022/11/12 01:54:15;;;;;;;9.82;7.60;;;;;;;18.34;44.59;103037.97;4991316;28;20065;-64
2022/11/12 01:56:41;;;;;;;10.50;7.97;;;;;;;18.37;44.57;103036.03;4991664;28;20545;-66
2022/11/12 01:59:15;;;;;;;10.45;7.43;;;;;;;18.37;44.28;103035.19;4991162;28;20137;-65
2022/11/12 02:01:41;;;;;;;9.70;6.85;;;;;;;18.36;44.40;103036.09;4991288;28;20121;-66
2022/11/12 02:04:06;;;;;;;10.45;7.53;;;;;;;18.23;44.31;103020.00;4991091;28;20118;-65
2022/11/12 02:06:33;;;;;;;10.65;7.60;;;;;;;18.31;44.36;103033.69;4994244;28;21031;-65
2022/11/12 02:08:58;;;;;;;9.13;6.97;;;;;;;18.28;44.47;103032.06;4995159;28;20066;-65
2022/11/12 02:11:23;;;;;;;8.57;6.88;;;;;;;18.30;44.21;103029.34;4995363;28;20120;-66
2022/11/12 02:13:57;;;;;;;8.37;7.00;;;;;;;18.30;44.44;103032.81;5002167;28;20041;-64
2022/11/12 02:16:40;;;;;;;9.80;6.97;;;;;;;18.30;44.33;103032.81;4995438;28;20287;-66
2022/11/12 02:19:09;;;;;;;9.50;7.17;;;;;;;18.26;44.41;103033.03;4995252;28;20533;-64
2022/11/12 02:21:35;;;;;;;9.75;7.28;;;;;;;18.26;44.34;103033.91;4995157;28;20053;-66
2022/11/12 02:24:12;;;;;;;8.98;7.03;;;;;;;18.28;44.42;103041.75;4995152;28;20073;-64
2022/11/12 02:26:42;;;;;;;10.63;7.28;;;;;;;18.25;44.09;103037.47;4995136;28;20402;-65
2022/11/12 02:29:08;;;;;;;8.93;7.28;;;;;;;18.22;44.10;103027.06;4995226;28;20394;-64
2022/11/12 02:31:34;;;;;;;9.65;7.20;;;;;;;18.22;44.07;103023.56;4995360;28;20037;-65
2022/11/12 02:34:00;;;;;;;8.23;6.47;;;;;;;18.22;43.97;103031.50;4995258;28;20045;-65
2022/11/12 02:36:26;;;;;;;9.80;6.80;;;;;;;18.23;44.13;103031.41;4994672;28;20601;-65
2022/11/12 02:38:51;;;;;;;10.60;7.25;;;;;;;18.20;44.32;103026.28;4994725;28;20588;-65
2022/11/12 02:41:16;;;;;;;8.32;7.03;;;;;;;18.22;44.10;103032.34;4994668;28;20040;-65
2022/11/12 02:43:42;;;;;;;9.43;7.10;;;;;;;18.22;44.04;103034.97;4994750;28;20034;-66
2022/11/12 02:46:07;;;;;;;10.77;7.60;;;;;;;18.18;44.34;103025.47;4994937;28;20034;-65
2022/11/12 02:48:32;;;;;;;10.60;7.18;;;;;;;18.21;43.91;103022.69;4994169;28;20078;-65
2022/11/12 02:50:58;;;;;;;8.77;6.43;;;;;;;18.20;44.05;103012.22;4995618;28;20117;-65
2022/11/12 02:53:23;;;;;;;9.77;7.17;;;;;;;18.22;44.14;103019.13;4994190;28;20370;-66
2022/11/12 02:55:49;;;;;;;9.98;7.35;;;;;;;18.20;44.19;103010.44;4994658;28;20295;-65
2022/11/12 02:58:14;;;;;;;8.70;6.65;;;;;;;18.23;43.96;103017.34;4995009;28;20038;-64
2022/11/12 03:00:39;;;;;;;8.65;6.75;;;;;;;18.22;43.63;103013.00;4994127;28;20038;-64
2022/11/12 03:03:05;;;;;;;9.65;6.70;;;;;;;18.24;43.87;103013.78;4994781;28;20693;-66
2022/11/12 03:05:32;;;;;;;8.95;6.47;;;;;;;18.23;44.11;103007.66;4994452;28;20037;-66
2022/11/12 03:07:59;;;;;;;9.23;6.75;;;;;;;18.13;43.82;102993.19;4994059;28;20080;-66
2022/11/12 03:10:26;;;;;;;10.07;6.68;;;;;;;18.23;43.85;103014.72;4994428;28;20130;-65
2022/11/12 03:12:53;;;;;;;8.88;6.53;;;;;;;18.23;43.79;103020.00;4994107;28;20038;-65
2022/11/12 03:15:18;;;;;;;8.45;6.55;;;;;;;18.21;43.53;103016.56;4994226;28;20042;-64
2022/11/12 03:17:44;;;;;;;8.90;6.38;;;;;;;18.21;43.74;103021.84;4993450;28;20117;-65
2022/11/12 03:20:10;;;;;;;8.88;6.75;;;;;;;18.18;43.83;103012.28;4993978;28;20565;-65
2022/11/12 03:22:37;;;;;;;8.45;6.40;;;;;;;18.12;43.62;103009.97;4994010;28;20065;-64
2022/11/12 03:25:04;;;;;;;8.55;6.60;;;;;;;18.16;43.75;103024.69;4994175;28;20030;-65
2022/11/12 03:27:29;;;;;;;8.68;6.20;;;;;;;18.16;43.46;103019.44;4993499;28;20053;-63
2022/11/12 03:29:54;;;;;;;7.90;6.27;;;;;;;18.17;43.46;103038.78;4994100;28;20062;-65
2022/11/12 03:32:19;;;;;;;8.50;6.30;;;;;;;18.16;43.77;103031.78;4993536;28;20274;-64
2022/11/12 03:34:44;;;;;;;11.00;6.70;;;;;;;18.11;43.50;103022.28;4993890;28;20330;-64
2022/11/12 03:37:10;;;;;;;8.60;6.13;;;;;;;18.14;43.70;103029.22;4993337;28;20286;-65
2022/11/12 03:39:35;;;;;;;9.50;6.20;;;;;;;18.09;43.40;103018.03;4994040;28;20046;-69
2022/11/12 03:42:01;;;;;;;8.52;6.10;;;;;;;18.09;43.68;103025.94;4993259;28;20282;-65
2022/11/12 03:44:27;;;;;;;7.63;5.68;;;;;;;18.12;43.45;103031.91;4993611;28;20049;-64
2022/11/12 03:46:52;;;;;;;9.48;6.75;;;;;;;17.99;43.44;103017.59;4993380;28;20466;-66
2022/11/12 03:49:17;;;;;;;8.43;5.97;;;;;;;18.05;43.55;103027.84;4993798;28;20034;-66
2022/11/12 03:51:42;;;;;;;7.63;5.72;;;;;;;18.06;43.56;103028.72;4993467;28;20274;-67
2022/11/12 03:54:08;;;;;;;8.23;6.17;;;;;;;18.05;43.34;103024.34;4992814;28;20034;-66
2022/11/12 03:56:33;;;;;;;9.10;6.28;;;;;;;18.03;43.24;103019.16;4993388;28;20314;-65
2022/11/12 03:58:58;;;;;;;7.93;5.95;;;;;;;18.05;43.50;103033.13;4993458;28;20033;-63
2022/11/12 04:01:23;;;;;;;8.65;6.30;;;;;;;18.05;43.20;103034.91;4993690;28;20034;-65
2022/11/12 04:03:49;;;;;;;8.00;5.95;;;;;;;18.04;43.35;103031.44;4993052;28;20452;-66
2022/11/12 04:08:58;;;;;;;7.80;5.95;;;;;;;18.00;43.46;103019.28;4993051;28;20402;-66
2022/11/12 04:11:23;;;;;;;8.57;5.93;;;;;;;18.00;43.29;103010.53;4992449;28;20038;-65
2022/11/12 04:13:48;;;;;;;7.55;5.80;;;;;;;18.00;43.44;103011.38;4993071;28;20264;-67
2022/11/12 04:21:54;;;;;;;7.60;5.65;;;;;;;18.03;43.24;103011.22;4992828;28;20150;-65
2022/11/12 04:27:31;;;;;;;8.32;5.70;;;;;;;18.04;43.35;103004.16;4992380;28;20097;-65
2022/11/12 04:30:15;;;;;;;7.65;5.60;;;;;;;18.03;43.25;102998.03;4991993;28;20294;-64
2022/11/12 04:32:53;;;;;;;8.25;5.50;;;;;;;18.03;43.24;102997.19;4993494;28;20060;-65
2022/11/12 04:35:19;;;;;;;7.50;5.32;;;;;;;18.00;43.22;102992.91;4992778;28;20133;-64
2022/11/12 04:37:46;;;;;;;7.85;5.05;;;;;;;17.98;43.26;102994.78;4992254;28;20034;-66
2022/11/12 04:45:52;;;;;;;7.18;4.95;;;;;;;17.94;43.15;103003.75;4992800;28;20040;-64
2022/11/12 04:48:18;;;;;;;7.38;5.30;;;;;;;17.98;43.10;103009.75;4992550;28;20026;-65
2022/11/12 04:50:47;;;;;;;7.72;5.40;;;;;;;17.94;43.00;102998.47;4991952;28;20473;-64
2022/11/12 04:53:13;;;;;;;7.88;5.32;;;;;;;17.92;43.00;102997.69;4992748;28;20034;-65
2022/11/12 04:55:39;;;;;;;7.35;4.90;;;;;;;17.91;42.99;102991.56;4992514;28;20077;-65
2022/11/12 04:58:04;;;;;;;8.07;4.80;;;;;;;17.93;42.79;102997.63;4992327;28;20107;-65
2022/11/12 05:00:30;;;;;;;6.72;4.82;;;;;;;17.92;43.21;102995.91;4992268;28;20042;-65
2022/11/12 05:02:55;;;;;;;6.50;4.68;;;;;;;17.90;43.21;102981.94;4992107;28;20064;-66
2022/11/12 05:05:20;;;;;;;7.22;4.95;;;;;;;17.93;43.27;102989.72;4992218;28;20117;-66
2022/11/12 05:07:46;;;;;;;7.68;5.20;;;;;;;17.93;43.22;102992.34;4991867;28;20134;-66
2022/11/12 05:10:11;;;;;;;7.28;4.95;;;;;;;17.93;43.06;102983.59;4992167;28;20146;-65
2022/11/12 05:12:36;;;;;;;6.55;4.70;;;;;;;17.89;43.03;102976.72;4991888;28;20440;-65
2022/11/12 05:15:02;;;;;;;7.07;4.73;;;;;;;17.93;42.85;102983.59;4992125;28;20060;-66
2022/11/12 05:17:28;;;;;;;6.82;4.85;;;;;;;17.92;43.10;102981.88;4990972;28;20648;-65
2022/11/12 05:19:53;;;;;;;7.47;4.50;;;;;;;17.92;42.69;102977.44;4991443;28;20065;-65
2022/11/12 05:22:19;;;;;;;6.47;4.57;;;;;;;17.92;42.89;102979.22;4991905;28;20038;-65
2022/11/12 05:24:44;;;;;;;7.18;4.57;;;;;;;17.91;43.00;102980.13;4991592;28;20394;-65
2022/11/12 05:27:13;;;;;;;6.55;4.20;;;;;;;17.89;43.01;102977.56;4992192;28;20048;-65
2022/11/12 05:29:39;;;;;;;5.90;4.18;;;;;;;17.87;42.68;102968.84;4991473;28;20125;-65
2022/11/12 05:32:05;;;;;;;7.03;4.38;;;;;;;17.88;42.60;102973.25;4991373;28;20113;-65
2022/11/12 05:34:31;;;;;;;6.47;4.60;;;;;;;17.87;42.63;102975.91;4991535;28;20096;-66
2022/11/12 05:36:56;;;;;;;6.97;4.38;;;;;;;17.84;42.57;102966.34;4991602;28;20033;-66
2022/11/12 05:39:22;;;;;;;6.47;4.47;;;;;;;17.83;42.84;102962.03;4991050;28;20034;-65
2022/11/12 05:41:47;;;;;;;7.35;4.40;;;;;;;17.84;42.65;102976.06;4991436;28;20037;-65
2022/11/12 05:44:13;;;;;;;6.13;4.28;;;;;;;17.84;42.56;102974.25;4992171;28;20044;-65
2022/11/12 05:46:38;;;;;;;7.60;4.65;;;;;;;17.80;42.79;102964.81;4990921;28;20406;-65
2022/11/12 05:49:03;;;;;;;7.18;4.40;;;;;;;17.82;42.63;102967.38;4991346;28;20037;-64
2022/11/12 05:51:29;;;;;;;6.37;4.57;;;;;;;17.82;42.81;102980.56;4991356;28;20030;-63
2022/11/12 05:53:54;;;;;;;6.18;4.20;;;;;;;17.82;42.80;102970.84;4991964;28;20351;-65
2022/11/12 05:56:19;;;;;;;5.63;4.15;;;;;;;17.72;42.48;102959.88;4991153;28;20049;-64
2022/11/12 05:58:44;;;;;;;6.85;4.65;;;;;;;17.79;42.88;102968.34;4991485;28;20339;-64
2022/11/12 06:01:10;;;;;;;6.73;4.17;;;;;;;17.81;42.45;102970.94;4991239;28;20034;-65
2022/11/12 06:03:35;;;;;;;6.03;3.90;;;;;;;17.80;42.57;102967.44;4991508;28;20290;-65
2022/11/12 06:06:01;;;;;;;6.43;4.10;;;;;;;17.83;42.35;102969.94;4991257;28;20029;-65
2022/11/12 06:08:26;;;;;;;6.13;4.72;;;;;;;17.78;42.65;102961.38;4991657;28;20034;-64
2022/11/12 06:10:53;;;;;;;6.97;4.20;;;;;;;17.79;42.47;102967.50;4990562;28;20038;-65
2022/11/12 06:13:22;;;;;;;6.22;3.97;;;;;;;17.79;42.34;102963.09;4990653;28;20530;-65
2022/11/12 06:15:48;;;;;;;5.95;4.00;;;;;;;17.86;42.75;102971.56;4990896;28;20026;-65
2022/11/12 06:18:13;;;;;;;6.13;3.97;;;;;;;17.90;42.81;102978.44;4991447;28;20402;-65
2022/11/12 06:20:38;;;;;;;7.50;4.10;;;;;;;17.90;42.81;102970.53;4991183;28;20283;-66
2022/11/12 06:23:04;;;;;;;7.72;4.18;;;;;;;17.96;43.11;102972.88;4991312;28;20038;-65
2022/11/12 06:25:29;;;;;;;6.70;4.03;;;;;;;18.02;43.14;102979.66;4991289;28;20153;-65
2022/11/12 06:27:54;;;;;;;7.40;4.00;;;;;;;17.99;43.56;102974.50;4990526;28;20403;-65
2022/11/12 06:30:20;;;;;;;6.75;3.80;;;;;;;18.08;43.61;102980.19;4990735;28;20382;-65
2022/11/12 06:32:46;;;;;;;5.90;3.80;;;;;;;18.15;43.53;102979.91;4991466;28;20840;-65
2022/11/12 06:35:12;;;;;;;6.75;4.22;;;;;;;18.17;43.59;102980.72;4990973;28;20030;-66
2022/11/12 06:37:37;;;;;;;4.72;3.20;;;;;;;18.22;43.76;102978.72;4991451;28;20187;-66
2022/11/12 06:40:03;;;;;;;6.72;4.50;;;;;;;18.27;42.75;102987.25;4990827;28;20049;-69
2022/11/12 06:42:28;;;;;;;5.93;3.97;;;;;;;18.23;42.54;102970.72;4991644;28;20587;-66
2022/11/12 06:44:53;;;;;;;5.53;3.58;;;;;;;18.32;42.62;102982.59;4991321;28;20034;-67
2022/11/12 06:47:19;;;;;;;7.47;3.80;;;;;;;18.37;43.18;102987.66;4991590;28;20537;-66
2022/11/12 06:49:44;;;;;;;6.27;3.70;;;;;;;18.40;42.66;102991.00;4991065;28;20303;-66
2022/11/12 06:52:09;;;;;;;5.60;3.70;;;;;;;18.44;42.59;102997.84;4992661;28;20268;-67
2022/11/12 06:54:34;;;;;;;6.33;3.90;;;;;;;18.45;42.42;102989.00;4994656;28;20046;-67
2022/11/12 06:57:00;;;;;;;5.80;3.70;;;;;;;18.49;42.39;102995.84;4994942;28;20251;-66
2022/11/12 06:59:25;;;;;;;5.88;3.65;;;;;;;18.51;42.38;102994.91;4994224;28;20263;-67
2022/11/12 07:01:51;;;;;;;5.63;3.72;;;;;;;18.55;42.03;102999.97;4994861;28;20073;-66
2022/11/12 07:04:16;;;;;;;5.60;3.50;;;;;;;18.58;42.21;102996.31;4994523;28;20061;-66
2022/11/12 07:06:41;;;;;;;6.38;3.95;;;;;;;18.60;42.07;102994.47;4994190;28;20040;-65
2022/11/12 07:09:07;;;;;;;6.07;3.88;;;;;;;18.61;42.19;102993.50;5000733;28;20120;-66
2022/11/12 07:11:32;;;;;;;5.63;3.78;;;;;;;18.63;41.91;102997.81;4994510;28;20038;-66
2022/11/12 07:13:57;;;;;;;5.50;3.23;;;;;;;18.66;42.40;102997.66;4993881;28;20045;-65
2022/11/12 07:16:23;;;;;;;6.07;4.07;;;;;;;18.64;41.12;102993.38;4993774;28;20264;-66
2022/11/12 07:18:48;;;;;;;6.82;3.67;;;;;;;18.62;41.91;102988.16;4994363;28;20276;-65
2022/11/12 07:21:16;;;;;;;7.22;3.30;;;;;;;18.68;42.25;102995.78;4993995;28;20372;-65
2022/11/12 07:23:41;;;;;;;5.90;3.47;;;;;;;18.70;42.23;102998.34;4994439;28;20092;-65
2022/11/12 07:26:12;;;;;;;5.87;3.80;;;;;;;18.72;42.26;102995.63;4994382;28;20394;-65
2022/11/12 07:28:37;;;;;;;5.55;3.63;;;;;;;18.72;42.44;102987.72;4993790;28;20283;-66
2022/11/12 07:31:05;;;;;;;7.63;3.90;;;;;;;18.72;42.41;102996.47;4993391;28;20113;-65
2022/11/12 07:33:32;;;;;;;5.57;3.70;;;;;;;18.73;41.54;102990.28;4993643;28;20156;-66
2022/11/12 07:36:04;;;;;;;5.43;3.60;;;;;;;18.74;42.60;103002.56;4993885;28;20038;-66
2022/11/12 07:38:32;;;;;;;8.27;3.78;;;;;;;18.75;42.86;102998.97;4994342;28;20089;-65
2022/11/12 07:40:59;;;;;;;6.35;3.60;;;;;;;18.74;42.91;103004.31;4993949;28;20442;-65
2022/11/12 07:43:24;;;;;;;7.68;4.15;;;;;;;18.75;42.93;103004.25;4993208;28;20434;-66
2022/11/12 07:45:49;;;;;;;7.38;3.90;;;;;;;18.78;43.03;103009.38;5000520;28;20041;-66
2022/11/12 07:48:15;;;;;;;5.60;3.60;;;;;;;18.80;43.09;103009.31;4993314;28;20084;-67
2022/11/12 07:50:40;;;;;;;6.43;3.75;;;;;;;18.77;43.15;103001.53;4992991;28;20802;-67
2022/11/12 07:53:05;;;;;;;6.03;3.42;;;;;;;18.78;43.06;103006.75;4993593;28;20061;-65
2022/11/12 07:55:31;;;;;;;6.68;3.85;;;;;;;18.79;43.29;103004.97;4993385;28;20050;-66
2022/11/12 07:57:58;;;;;;;5.83;3.77;;;;;;;18.79;43.13;103008.47;4993616;28;20080;-68
2022/11/12 08:00:24;;;;;;;8.35;3.60;;;;;;;18.74;43.31;103004.31;4993413;28;20272;-65
2022/11/12 08:02:49;;;;;;;6.63;4.07;;;;;;;18.84;42.95;103019.69;4993376;28;20030;-66
2022/11/12 08:05:14;;;;;;;7.30;3.80;;;;;;;18.83;43.20;103022.38;4992692;28;20034;-65
2022/11/12 08:07:39;;;;;;;5.28;3.22;;;;;;;18.84;43.06;103018.84;4993699;28;20271;-65
2022/11/12 08:10:05;;;;;;;6.30;3.97;;;;;;;18.81;42.83;103016.31;4992605;28;20034;-65
2022/11/12 08:12:31;;;;;;;5.15;3.55;;;;;;;18.79;42.72;103019.03;4993120;28;20817;-66
2022/11/12 08:14:56;;;;;;;7.97;3.80;;;;;;;18.83;43.03;103023.25;4993034;28;20034;-66
2022/11/12 08:17:21;;;;;;;7.10;4.03;;;;;;;18.77;42.96;103015.63;4993194;28;20038;-65
2022/11/12 08:19:47;;;;;;;6.97;3.90;;;;;;;18.81;42.96;103026.88;4992870;28;20752;-67
2022/11/12 08:22:12;;;;;;;6.65;4.07;;;;;;;18.82;43.38;103034.72;4993165;28;20268;-66
2022/11/12 08:24:37;;;;;;;8.05;4.03;;;;;;;18.81;43.33;103033.00;4993090;28;20113;-67
2022/11/12 08:27:02;;;;;;;6.97;4.07;;;;;;;18.79;43.42;103032.22;5007029;28;20379;-67
2022/11/12 08:29:28;;;;;;;6.18;4.25;;;;;;;18.79;43.63;103032.22;4992579;28;20333;-68
2022/11/12 08:31:53;;;;;;;7.63;4.15;;;;;;;18.83;43.57;103041.72;4993070;28;20033;-67
2022/11/12 08:34:18;;;;;;;7.70;3.87;;;;;;;18.83;43.73;103044.38;4992530;28;20473;-66
2022/11/12 08:36:43;;;;;;;10.27;5.13;;;;;;;18.79;44.00;103031.38;4992764;28;20452;-65
2022/11/12 08:39:09;;;;;;;6.50;4.00;;;;;;;18.84;43.82;103038.16;4992672;28;20381;-66
2022/11/12 08:41:34;;;;;;;6.53;4.20;;;;;;;18.84;43.50;103035.53;4993172;28;20259;-65
2022/11/12 08:44:00;;;;;;;8.45;4.10;;;;;;;18.85;43.63;103041.69;4992927;28;20501;-70
2022/11/12 08:46:25;;;;;;;7.65;4.32;;;;;;;18.83;43.78;103036.44;4992568;28;20145;-65
2022/11/12 08:48:50;;;;;;;8.15;4.22;;;;;;;18.85;43.93;103033.75;4992247;28;20038;-67
2022/11/12 08:51:15;;;;;;;10.10;4.10;;;;;;;18.88;44.12;103040.66;4992168;28;20038;-66
2022/11/12 08:53:41;;;;;;;8.65;4.20;;;;;;;18.87;43.77;103038.94;4992986;28;20866;-67
2022/11/12 08:56:06;;;;;;;7.13;3.90;;;;;;;18.91;44.05;103040.50;4992165;28;20064;-65
2022/11/12 08:58:31;;;;;;;8.30;3.90;;;;;;;18.88;44.13;103035.38;4992632;28;20538;-65
2022/11/12 09:01:03;;;;;;;7.07;4.10;;;;;;;18.93;44.13;103034.22;4992639;28;20049;-67
2022/11/12 09:03:29;;;;;;;8.68;4.22;;;;;;;18.93;44.10;103036.00;4992243;28;20292;-66
2022/11/12 09:05:54;;;;;;;6.83;4.00;;;;;;;18.88;43.81;103030.94;4992125;28;20044;-65
2022/11/12 09:08:23;;;;;;;8.10;3.80;;;;;;;18.92;43.92;103031.66;4991843;28;20284;-65
2022/11/12 09:10:49;;;;;;;8.52;4.10;;;;;;;18.90;44.26;103034.38;4992221;28;20266;-65
2022/11/12 09:13:16;;;;;;;6.95;3.85;;;;;;;18.90;44.26;103023.81;4992641;28;20034;-65
2022/11/12 09:15:41;;;;;;;6.32;4.32;;;;;;;18.94;44.01;103040.34;4991495;28;20509;-68
2022/11/12 09:18:11;;;;;;;6.88;4.10;;;;;;;18.94;44.37;103035.06;4992136;28;20033;-68
2022/11/12 09:20:36;;;;;;;6.68;3.42;;;;;;;18.97;44.53;103032.28;4991363;28;20030;-68
2022/11/12 09:23:14;;;;;;;9.90;4.38;;;;;;;19.05;45.04;103037.19;4991837;28;20038;-68
2022/11/12 09:25:39;;;;;;;8.68;4.15;;;;;;;19.05;45.35;103035.38;4992125;28;20038;-68
2022/11/12 09:28:16;;;;;;;7.28;3.65;;;;;;;19.10;45.24;103043.06;4991663;28;20034;-66
2022/11/12 09:30:45;;;;;;;6.40;3.55;;;;;;;19.08;45.45;103029.94;4991918;28;20042;-67
2022/11/12 09:33:11;;;;;;;7.82;3.67;;;;;;;19.11;45.78;103037.72;4991758;28;20925;-66
2022/11/12 09:35:36;;;;;;;8.48;3.75;;;;;;;19.15;46.13;103041.06;4991971;28;20041;-68
2022/11/12 09:38:01;;;;;;;13.37;4.67;;;;;;;19.15;46.27;103041.94;4992090;28;20026;-67
2022/11/12 09:40:44;;;;;;;12.38;3.90;;;;;;;19.16;46.63;103033.03;4991878;28;20870;-67
2022/11/12 09:43:28;;;;;;;9.20;3.92;;;;;;;19.17;46.63;103034.75;4991414;28;20037;-68
2022/11/12 09:45:59;;;;;;;7.22;4.10;;;;;;;19.22;46.68;103042.47;4991440;28;20034;-75
2022/11/12 09:48:31;;;;;;;9.18;4.00;;;;;;;19.24;46.92;103037.94;4991699;28;20034;-66
2022/11/12 09:51:05;;;;;;;9.27;3.70;;;;;;;19.23;46.67;103030.94;4991485;28;20482;-65
2022/11/12 09:53:37;;;;;;;7.57;3.75;;;;;;;19.23;46.86;103027.44;4992006;28;20197;-67
2022/11/12 09:56:09;;;;;;;11.55;3.63;;;;;;;19.26;47.07;103033.41;4991498;28;20054;-67
2022/11/12 09:58:35;;;;;;;9.80;3.45;;;;;;;19.25;47.18;103037.03;4991496;28;20095;-66
2022/11/12 10:01:12;;;;;;;11.00;4.03;;;;;;;19.26;47.33;103029.94;4991767;28;20092;-69
2022/11/12 10:04:07;;;;;;;8.27;3.45;;;;;;;19.27;47.25;103034.31;4991753;28;20049;-66
2022/11/12 10:06:42;;;;;;;9.43;3.83;;;;;;;19.28;47.56;103043.91;5006512;28;20038;-68
2022/11/12 10:09:14;;;;;;;;;;;;;;;19.26;47.69;103041.34;4991812;28;20031;-67
2022/11/12 10:16:41;;;;;;;8.88;3.80;;;;;;;19.29;47.99;103025.34;4990990;28;20091;-67
2022/11/12 10:18:08;;;;;;;8.55;3.35;;;;;;;19.25;48.17;103023.81;4990972;28;20100;-66
2022/11/12 10:20:41;;;;;;;11.32;3.58;;;;;;;19.22;48.31;103016.03;4991153;28;20040;-68
2022/11/12 10:23:18;;;;;;;8.07;3.55;;;;;;;19.28;48.73;103030.69;4991021;28;20043;-67
2022/11/12 10:25:46;;;;;;;6.22;3.70;;;;;;;19.28;48.63;103022.78;4991436;28;21255;-66
2022/11/12 10:28:25;;;;;;;8.82;4.25;;;;;;;19.28;48.98;103023.66;4995116;28;20488;-68
2022/11/12 10:30:54;;;;;;;10.05;3.70;;;;;;;19.27;49.25;103021.09;4993946;28;20112;-70
2022/11/12 10:33:19;;;;;;;11.05;3.85;;;;;;;19.30;49.10;103021.75;4995362;28;20120;-68
2022/11/12 10:35:44;;;;;;;7.90;3.60;;;;;;;19.27;48.62;103024.56;4994723;28;20117;-69
2022/11/12 10:38:17;;;;;;;9.40;3.90;;;;;;;19.28;48.19;103023.66;4995152;28;20283;-67
2022/11/12 10:40:42;;;;;;;11.55;3.97;;;;;;;19.26;48.50;103030.78;4994707;28;20279;-68
2022/11/12 10:43:16;;;;;;;10.90;3.67;;;;;;;19.26;48.59;103016.72;4995171;28;20037;-67
2022/11/12 10:45:43;;;;;;;8.55;3.55;;;;;;;19.23;48.69;103015.06;4994886;28;20065;-67
2022/11/12 10:48:23;;;;;;;15.85;3.63;;;;;;;19.25;48.91;103023.81;4994533;28;20041;-68
2022/11/12 10:50:49;;;;;;;9.00;3.30;;;;;;;19.25;48.82;103015.88;4994357;28;20438;-68
2022/11/12 10:53:30;;;;;;;8.70;3.72;;;;;;;19.24;49.31;102997.44;4994910;28;20087;-70
2022/11/12 10:56:04;;;;;;;10.52;3.45;;;;;;;19.29;49.34;103008.63;4995114;28;20058;-73
2022/11/12 10:58:30;;;;;;;13.50;3.80;;;;;;;19.28;48.06;103002.50;4994433;28;20042;-68
2022/11/12 11:01:02;;;;;;;10.70;3.80;;;;;;;19.23;47.83;102999.22;4994527;28;20041;-72
2022/11/12 11:03:32;;;;;;;8.75;3.60;;;;;;;19.19;48.51;102995.88;4994474;28;20025;-69
2022/11/12 11:06:16;;;;;;;8.52;3.58;;;;;;;19.19;48.59;102992.41;4994685;28;20034;-67
2022/11/12 11:08:44;;;;;;;9.25;3.72;;;;;;;19.17;48.53;102981.91;4994452;28;20474;-68
2022/11/12 11:11:17;;;;;;;8.07;3.60;;;;;;;19.20;48.23;102986.16;4993440;28;20346;-67
2022/11/12 11:13:43;;;;;;;9.30;3.30;;;;;;;19.18;48.48;102994.19;4991764;28;20482;-71
2022/11/12 11:16:14;;;;;;;9.60;3.70;;;;;;;19.16;48.42;102992.56;4994005;28;20048;-71
2022/11/12 11:18:44;;;;;;;8.02;3.40;;;;;;;19.20;48.42;102994.09;4994141;28;20038;-74
2022/11/12 11:21:27;;;;;;;7.95;3.15;;;;;;;19.21;48.23;102982.59;4993314;28;20080;-74
2022/11/12 11:24:04;;;;;;;6.57;3.47;;;;;;;19.27;48.25;102990.19;4993556;28;20038;-74
2022/11/12 11:27:01;;;;;;;9.35;3.47;;;;;;;19.31;48.00;102990.88;4993691;28;20045;-74
2022/11/12 11:29:41;;;;;;;7.55;3.47;;;;;;;19.34;47.87;102986.31;4993966;28;20034;-76
2022/11/12 11:32:27;;;;;;;8.43;3.50;;;;;;;19.36;47.79;102983.59;4992990;28;20101;-77
2022/11/12 11:35:27;;;;;;;7.95;3.97;;;;;;;19.40;47.70;102987.75;5000206;28;20398;-72
2022/11/12 11:38:30;;;;;;;9.15;3.00;;;;;;;19.37;47.64;102982.63;4992502;28;20699;-69
2022/11/12 11:41:01;;;;;;;12.70;3.25;;;;;;;19.35;47.68;102984.50;4993398;28;20026;-69
2022/11/12 11:43:46;;;;;;;5.97;3.05;;;;;;;19.32;47.93;102977.59;4993958;28;20030;-70
2022/11/12 11:46:37;;;;;;;7.40;3.05;;;;;;;19.31;47.80;102967.97;4992768;28;20045;-71
2022/11/12 11:49:43;;;;;;;7.35;3.15;;;;;;;19.30;47.81;102968.03;4993338;28;20359;-67